Zlatoust — UZDA — position and weather

sailwx.info

Track history (hours):
 
Tides and Currents Weather Stations Pressure Air Temp Water Temp Dewpoint Dewpoint Depression Visibility Wind Speed Wind Dir Waves Ship Positions

Zlatoust

Last reported at 2017-Oct-08 07:28 UTC. Time now 2017-Oct-17 17:02 UTC.
Position N 48°13' E 014°57'.
Warning: this ship's position is 9 days out of date.

Length 32 m; draft 1.8 m.

Type: Ship. MMSI: 272029700.

Date/timePositionNaut miles runAvg speedWind from/ knotsBaromVisibWave heightAir tempDewpointWater temp
2017-Oct-08 07:28N 48°13' E 014°57'2 4.7
2017-Oct-08 07:00N 48°12' E 014°60'3 5.1
2017-Oct-08 06:30N 48°12' E 015°04'1 1.0
2017-Oct-08 06:00N 48°11' E 015°04'1 2.2
2017-Oct-08 05:30N 48°11' E 015°05'1 2.3
2017-Oct-08 05:00N 48°11' E 015°07'2 3.3
2017-Oct-08 04:30N 48°12' E 015°07'2 4.3
2017-Oct-08 04:00N 48°13' E 015°10'2 4.9
2017-Oct-08 03:30N 48°13' E 015°14'3 5.2
2017-Oct-08 03:00N 48°14' E 015°18'0 0.6
2017-Oct-08 02:20N 48°14' E 015°19'44 2.5
2017-Oct-07 09:00N 48°14' E 016°24'3 5.0
2017-Oct-07 08:22N 48°11' E 016°27'1 3.5
2017-Oct-07 08:00N 48°11' E 016°29'0 0.3
2017-Oct-07 07:29N 48°10' E 016°29'1 1.4
2017-Oct-07 06:59N 48°10' E 016°30'8 2.2
2017-Oct-07 03:25N 48°07' E 016°41'2 1.9
2017-Oct-07 02:20N 48°08' E 016°44'1 2.0
2017-Oct-07 01:58N 48°08' E 016°45'1 2.2
2017-Oct-07 01:23N 48°07' E 016°47'1 2.2
2017-Oct-07 01:00N 48°07' E 016°48'1 1.8
2017-Oct-07 00:30N 48°07' E 016°49'1 2.2
2017-Oct-07 00:00N 48°08' E 016°51'1 2.5
2017-Oct-06 23:27N 48°08' E 016°53'1 1.6
2017-Oct-06 23:00N 48°08' E 016°54'1 1.8
2017-Oct-06 22:30N 48°09' E 016°55'1 2.3
2017-Oct-06 22:00N 48°09' E 016°56'1 1.3
2017-Oct-06 21:30N 48°10' E 016°57'0 0.1
2017-Oct-06 21:00N 48°10' E 016°57'1 2.1
2017-Oct-06 20:30N 48°10' E 016°58'1 2.3
2017-Oct-06 20:00N 48°10' E 016°59'0 0.3
2017-Oct-06 19:30N 48°10' E 016°60'0 0.1
2017-Oct-06 19:00N 48°10' E 016°60'1 1.2
2017-Oct-06 18:30N 48°09' E 017°00'1 2.4
2017-Oct-06 18:00N 48°08' E 017°02'1 2.3
2017-Oct-06 17:30N 48°09' E 017°03'1 2.6
2017-Oct-06 17:00N 48°08' E 017°05'1 2.7
2017-Oct-06 16:30N 48°08' E 017°07'1 2.6
2017-Oct-06 16:00N 48°08' E 017°09'1 3.0
2017-Oct-06 15:30N 48°06' E 017°08'2 4.9
2017-Oct-06 15:00N 48°04' E 017°10'3 5.1
2017-Oct-06 14:30N 48°03' E 017°13'3 5.1
2017-Oct-06 14:00N 48°01' E 017°16'3 5.6
2017-Oct-06 13:30N 47°60' E 017°20'3 5.9
2017-Oct-06 13:00N 47°58' E 017°24'3 6.2
2017-Oct-06 12:30N 47°56' E 017°27'3 6.2
2017-Oct-06 12:00N 47°54' E 017°31'2 3.5
2017-Oct-06 11:30N 47°53' E 017°32'0 0.0
2017-Oct-06 11:00N 47°53' E 017°32'2 3.8
2017-Oct-06 10:30N 47°51' E 017°34'0 0.1
2017-Oct-06 10:00N 47°51' E 017°34'1 1.4
2017-Oct-06 09:30N 47°52' E 017°33'1 2.6
2017-Oct-06 09:00N 47°53' E 017°32'0 0.4
2017-Oct-06 08:30N 47°53' E 017°32'0 0.1
2017-Oct-06 08:00N 47°53' E 017°32'3 5.1
2017-Oct-06 07:30N 47°55' E 017°29'3 6.9
2017-Oct-06 07:00N 47°57' E 017°26'3 6.9
2017-Oct-06 06:30N 47°60' E 017°22'3 6.5
2017-Oct-06 06:00N 48°00' E 017°17'4 7.5
2017-Oct-06 05:30N 48°03' E 017°13'3 6.5
2017-Oct-06 05:00N 48°05' E 017°09'0 0.0
2017-Oct-06 04:26N 48°05' E 017°09'0 0.0
2017-Oct-06 03:59N 48°05' E 017°09'0 0.0
2017-Oct-06 03:29N 48°05' E 017°09'0 0.0
2017-Oct-06 02:59N 48°05' E 017°09'0 0.0
2017-Oct-06 02:29N 48°05' E 017°09'0 0.0
2017-Oct-06 01:59N 48°05' E 017°09'0 0.0
2017-Oct-06 01:29N 48°05' E 017°09'0 0.0
2017-Oct-06 00:59N 48°05' E 017°09'0 0.0
2017-Oct-06 00:29N 48°05' E 017°09'0 0.0
2017-Oct-05 23:59N 48°05' E 017°09'0 0.0
2017-Oct-05 23:29N 48°05' E 017°09'0 0.0
2017-Oct-05 22:59N 48°05' E 017°09'0 0.0
2017-Oct-05 22:29N 48°05' E 017°09'0 0.0
2017-Oct-05 21:59N 48°05' E 017°09'0 0.0
2017-Oct-05 21:29N 48°05' E 017°09'0 0.0
2017-Oct-05 20:59N 48°05' E 017°09'0 0.0
2017-Oct-05 20:29N 48°05' E 017°09'0 0.0
2017-Oct-05 19:59N 48°05' E 017°09'0 0.0
2017-Oct-05 19:29N 48°05' E 017°09'0 0.0
2017-Oct-05 18:59N 48°05' E 017°09'0 0.0
2017-Oct-05 18:29N 48°05' E 017°09'0 0.0
2017-Oct-05 17:59N 48°05' E 017°09'0 0.0
2017-Oct-05 17:29N 48°05' E 017°09'0 0.0
2017-Oct-05 16:59N 48°05' E 017°09'6 4.1
2017-Oct-05 15:30N 48°08' E 017°02'4 7.2
2017-Oct-05 15:00N 48°09' E 016°57'610.0
2017-Oct-05 14:24N 48°07' E 016°48'12 9.7
2017-Oct-05 13:10N 48°10' E 016°31'1 8.3
2017-Oct-05 13:00N 48°10' E 016°29'0 0.5
2017-Oct-05 12:30N 48°11' E 016°29'1 2.7
2017-Oct-05 12:00N 48°12' E 016°27'45 3.3
2017-Oct-04 22:10N 48°14' E 015°20'1 6.7
2017-Oct-04 22:00N 48°14' E 015°18'0 0.4
2017-Oct-04 21:30N 48°14' E 015°18'3 6.8
2017-Oct-04 21:00N 48°13' E 015°13'4 8.4
2017-Oct-04 20:30N 48°12' E 015°07'2 3.4
2017-Oct-04 20:00N 48°11' E 015°04'0 0.6
2017-Oct-04 19:30N 48°12' E 015°04'3 6.1
2017-Oct-04 19:00N 48°12' E 014°60'  
2017-Sep-29 10:19N 48°12' E 014°58'2 5.4
2017-Sep-29 10:01N 48°12' E 014°60'3 5.7
2017-Sep-29 09:31N 48°12' E 015°04'0 0.7
2017-Sep-29 09:00N 48°11' E 015°04'1 2.1
2017-Sep-29 08:31N 48°11' E 015°05'1 2.4
2017-Sep-29 08:01N 48°11' E 015°07'2 4.1
2017-Sep-29 07:30N 48°13' E 015°09'3 5.2
2017-Sep-29 07:01N 48°13' E 015°13'3 5.6
2017-Sep-29 06:31N 48°13' E 015°17'1 1.5
2017-Sep-29 05:56N 48°14' E 015°18'1 2.5
2017-Sep-29 05:31N 48°14' E 015°20'43 2.7
2017-Sep-28 13:44N 48°13' E 016°25'3 1.1
2017-Sep-28 11:05N 48°11' E 016°28'1 5.8
2017-Sep-28 11:00N 48°11' E 016°28'1 0.6
2017-Sep-28 09:51N 48°10' E 016°29'  
Track history (hours):
 
Tides and Currents Weather Stations Pressure Air Temp Water Temp Dewpoint Dewpoint Depression Visibility Wind Speed Wind Dir Waves Ship Positions

Zlatoust

Last reported at 2017-Oct-08 07:28 UTC. Time now 2017-Oct-17 17:02 UTC.
Position N 48°13' E 014°57'.
Warning: this ship's position is 9 days out of date.

Length 32 m; draft 1.8 m.

Type: Ship. MMSI: 272029700.

Date/timePositionNaut miles runAvg speedWind from/ knotsBaromVisibWave heightAir tempDewpointWater temp
2017-Oct-08 07:28N 48°13' E 014°57'2 4.7
2017-Oct-08 07:00N 48°12' E 014°60'3 5.1
2017-Oct-08 06:30N 48°12' E 015°04'1 1.0
2017-Oct-08 06:00N 48°11' E 015°04'1 2.2
2017-Oct-08 05:30N 48°11' E 015°05'1 2.3
2017-Oct-08 05:00N 48°11' E 015°07'2 3.3
2017-Oct-08 04:30N 48°12' E 015°07'2 4.3
2017-Oct-08 04:00N 48°13' E 015°10'2 4.9
2017-Oct-08 03:30N 48°13' E 015°14'3 5.2
2017-Oct-08 03:00N 48°14' E 015°18'0 0.6
2017-Oct-08 02:20N 48°14' E 015°19'44 2.5
2017-Oct-07 09:00N 48°14' E 016°24'3 5.0
2017-Oct-07 08:22N 48°11' E 016°27'1 3.5
2017-Oct-07 08:00N 48°11' E 016°29'0 0.3
2017-Oct-07 07:29N 48°10' E 016°29'1 1.4
2017-Oct-07 06:59N 48°10' E 016°30'8 2.2
2017-Oct-07 03:25N 48°07' E 016°41'2 1.9
2017-Oct-07 02:20N 48°08' E 016°44'1 2.0
2017-Oct-07 01:58N 48°08' E 016°45'1 2.2
2017-Oct-07 01:23N 48°07' E 016°47'1 2.2
2017-Oct-07 01:00N 48°07' E 016°48'1 1.8
2017-Oct-07 00:30N 48°07' E 016°49'1 2.2
2017-Oct-07 00:00N 48°08' E 016°51'1 2.5
2017-Oct-06 23:27N 48°08' E 016°53'1 1.6
2017-Oct-06 23:00N 48°08' E 016°54'1 1.8
2017-Oct-06 22:30N 48°09' E 016°55'1 2.3
2017-Oct-06 22:00N 48°09' E 016°56'1 1.3
2017-Oct-06 21:30N 48°10' E 016°57'0 0.1
2017-Oct-06 21:00N 48°10' E 016°57'1 2.1
2017-Oct-06 20:30N 48°10' E 016°58'1 2.3
2017-Oct-06 20:00N 48°10' E 016°59'0 0.3
2017-Oct-06 19:30N 48°10' E 016°60'0 0.1
2017-Oct-06 19:00N 48°10' E 016°60'1 1.2
2017-Oct-06 18:30N 48°09' E 017°00'1 2.4
2017-Oct-06 18:00N 48°08' E 017°02'1 2.3
2017-Oct-06 17:30N 48°09' E 017°03'1 2.6
2017-Oct-06 17:00N 48°08' E 017°05'1 2.7
2017-Oct-06 16:30N 48°08' E 017°07'1 2.6
2017-Oct-06 16:00N 48°08' E 017°09'1 3.0
2017-Oct-06 15:30N 48°06' E 017°08'2 4.9
2017-Oct-06 15:00N 48°04' E 017°10'3 5.1
2017-Oct-06 14:30N 48°03' E 017°13'3 5.1
2017-Oct-06 14:00N 48°01' E 017°16'3 5.6
2017-Oct-06 13:30N 47°60' E 017°20'3 5.9
2017-Oct-06 13:00N 47°58' E 017°24'3 6.2
2017-Oct-06 12:30N 47°56' E 017°27'3 6.2
2017-Oct-06 12:00N 47°54' E 017°31'2 3.5
2017-Oct-06 11:30N 47°53' E 017°32'0 0.0
2017-Oct-06 11:00N 47°53' E 017°32'2 3.8
2017-Oct-06 10:30N 47°51' E 017°34'0 0.1
2017-Oct-06 10:00N 47°51' E 017°34'1 1.4
2017-Oct-06 09:30N 47°52' E 017°33'1 2.6
2017-Oct-06 09:00N 47°53' E 017°32'0 0.4
2017-Oct-06 08:30N 47°53' E 017°32'0 0.1
2017-Oct-06 08:00N 47°53' E 017°32'3 5.1
2017-Oct-06 07:30N 47°55' E 017°29'3 6.9
2017-Oct-06 07:00N 47°57' E 017°26'3 6.9
2017-Oct-06 06:30N 47°60' E 017°22'3 6.5
2017-Oct-06 06:00N 48°00' E 017°17'4 7.5
2017-Oct-06 05:30N 48°03' E 017°13'3 6.5
2017-Oct-06 05:00N 48°05' E 017°09'0 0.0
2017-Oct-06 04:26N 48°05' E 017°09'0 0.0
2017-Oct-06 03:59N 48°05' E 017°09'0 0.0
2017-Oct-06 03:29N 48°05' E 017°09'0 0.0
2017-Oct-06 02:59N 48°05' E 017°09'0 0.0
2017-Oct-06 02:29N 48°05' E 017°09'0 0.0
2017-Oct-06 01:59N 48°05' E 017°09'0 0.0
2017-Oct-06 01:29N 48°05' E 017°09'0 0.0
2017-Oct-06 00:59N 48°05' E 017°09'0 0.0
2017-Oct-06 00:29N 48°05' E 017°09'0 0.0
2017-Oct-05 23:59N 48°05' E 017°09'0 0.0
2017-Oct-05 23:29N 48°05' E 017°09'0 0.0
2017-Oct-05 22:59N 48°05' E 017°09'0 0.0
2017-Oct-05 22:29N 48°05' E 017°09'0 0.0
2017-Oct-05 21:59N 48°05' E 017°09'0 0.0
2017-Oct-05 21:29N 48°05' E 017°09'0 0.0
2017-Oct-05 20:59N 48°05' E 017°09'0 0.0
2017-Oct-05 20:29N 48°05' E 017°09'0 0.0
2017-Oct-05 19:59N 48°05' E 017°09'0 0.0
2017-Oct-05 19:29N 48°05' E 017°09'0 0.0
2017-Oct-05 18:59N 48°05' E 017°09'0 0.0
2017-Oct-05 18:29N 48°05' E 017°09'0 0.0
2017-Oct-05 17:59N 48°05' E 017°09'0 0.0
2017-Oct-05 17:29N 48°05' E 017°09'0 0.0
2017-Oct-05 16:59N 48°05' E 017°09'6 4.1
2017-Oct-05 15:30N 48°08' E 017°02'4 7.2
2017-Oct-05 15:00N 48°09' E 016°57'610.0
2017-Oct-05 14:24N 48°07' E 016°48'12 9.7
2017-Oct-05 13:10N 48°10' E 016°31'1 8.3
2017-Oct-05 13:00N 48°10' E 016°29'0 0.5
2017-Oct-05 12:30N 48°11' E 016°29'1 2.7
2017-Oct-05 12:00N 48°12' E 016°27'45 3.3
2017-Oct-04 22:10N 48°14' E 015°20'1 6.7
2017-Oct-04 22:00N 48°14' E 015°18'0 0.4
2017-Oct-04 21:30N 48°14' E 015°18'3 6.8
2017-Oct-04 21:00N 48°13' E 015°13'4 8.4
2017-Oct-04 20:30N 48°12' E 015°07'2 3.4
2017-Oct-04 20:00N 48°11' E 015°04'0 0.6
2017-Oct-04 19:30N 48°12' E 015°04'3 6.1
2017-Oct-04 19:00N 48°12' E 014°60'  
2017-Sep-29 10:19N 48°12' E 014°58'2 5.4
2017-Sep-29 10:01N 48°12' E 014°60'3 5.7
2017-Sep-29 09:31N 48°12' E 015°04'0 0.7
2017-Sep-29 09:00N 48°11' E 015°04'1 2.1
2017-Sep-29 08:31N 48°11' E 015°05'1 2.4
2017-Sep-29 08:01N 48°11' E 015°07'2 4.1
2017-Sep-29 07:30N 48°13' E 015°09'3 5.2
2017-Sep-29 07:01N 48°13' E 015°13'3 5.6
2017-Sep-29 06:31N 48°13' E 015°17'1 1.5
2017-Sep-29 05:56N 48°14' E 015°18'1 2.5
2017-Sep-29 05:31N 48°14' E 015°20'43 2.7
2017-Sep-28 13:44N 48°13' E 016°25'3 1.1
2017-Sep-28 11:05N 48°11' E 016°28'1 5.8
2017-Sep-28 11:00N 48°11' E 016°28'1 0.6
2017-Sep-28 09:51N 48°10' E 016°29'  

Dump ship's entire track history